Latest Weather Observations for Coonawarra

IDS60801

Issued at 11:31 pm CST Thursday 30 July 2015 (issued every 30 minutes, with the page automatically refreshed every 10 minutes)

About weather observations | Map of weather stations | Latest weather observations for SA | Other Formats
Station Details ID: 026091 Name: COONAWARRA Lat: -37.29 Lon: 140.83 Height: 57.0 m
Data from the previous 72 hours. | See also: Recent months at Coonawarra
Date/Time
CST
Temp
°C
App
Temp
°C
Dew
Point
Rel
Hum
%
Delta-T
°C
Wind Press
QNH
hPa
Press
MSL
hPa
Rain
since 9 am
mm
Dir
 
Spd
km/h
Gust
km/h
Spd
kts
Gust
kts
30/11:30pm 2.2 -0.7 1.4 94 0.3 WNW 6 7 3 4 1021.1 1021.2 2.0
30/11:00pm 2.9 -0.1 1.9 93 0.4 WNW 7 9 4 5 1020.7 1020.8 2.0
30/10:30pm 3.6 0.7 2.6 93 0.4 WNW 7 9 4 5 1020.6 1020.7 2.0
30/10:00pm 4.6 1.4 3.1 90 0.6 SW 9 9 5 5 1020.5 1020.6 2.0
30/09:30pm 6.1 2.7 4.0 86 0.9 SW 11 13 6 7 1020.2 1020.3 2.0
30/09:00pm 5.8 2.1 4.6 92 0.5 SW 13 15 7 8 1019.8 1019.9 2.0
30/08:30pm 5.8 2.9 4.9 94 0.4 WSW 9 11 5 6 1019.5 1019.6 2.0
30/08:00pm 6.6 3.9 5.5 93 0.5 SW 9 11 5 6 1019.1 1019.2 2.0
30/07:30pm 6.9 3.9 5.8 93 0.5 SW 11 13 6 7 1018.5 1018.6 2.0
30/07:00pm 8.2 5.1 7.1 93 0.5 SW 13 15 7 8 1018.0 1018.1 2.0
30/06:30pm 8.9 6.7 7.9 93 0.5 SW 9 11 5 6 1017.5 1017.6 2.0
30/06:00pm 9.6 6.3 8.2 91 0.7 SW 15 19 8 10 1016.5 1016.6 2.0
30/05:30pm 10.0 5.9 8.8 92 0.6 SW 20 32 11 17 1015.9 1016.0 1.8
30/05:00pm 10.5 4.6 9.1 91 0.7 WSW 30 43 16 23 1015.2 1015.3 1.2
30/04:32pm 11.1 6.0 9.3 89 0.9 W 26 48 14 26 1014.4 1014.5 1.0
30/04:30pm 11.3 6.7 9.7 90 0.8 W 24 39 13 21 1014.4 1014.5 1.0
30/04:00pm 12.1 6.6 9.3 83 1.4 NNW 28 39 15 21 1013.4 1013.5 0.0
30/03:30pm 12.0 5.5 8.8 81 1.6 NW 33 46 18 25 1013.3 1013.4 0.0
30/03:00pm 12.4 6.1 7.5 72 2.4 NNW 30 46 16 25 1013.2 1013.3 0.0
30/02:30pm 12.6 4.8 6.5 66 2.9 NW 37 54 20 29 1013.0 1013.1 0.0
30/02:12pm 12.5 5.8 5.4 62 3.3 NNW 30 52 16 28 1013.2 1013.3 0.0
30/02:00pm 12.3 5.5 4.9 60 3.4 NNW 30 41 16 22 1013.1 1013.2 0.0
30/01:30pm 11.5 5.0 4.9 64 3.0 NNW 28 39 15 21 1013.4 1013.5 0.0
30/01:00pm 11.1 4.5 4.4 63 3.0 NNW 28 39 15 21 1013.7 1013.8 0.0
30/12:30pm 10.8 3.9 4.6 65 2.8 N 30 43 16 23 1013.9 1014.0 0.0
30/12:00pm 10.7 3.2 3.7 62 3.1 NNW 32 48 17 26 1014.8 1014.9 0.0
30/11:30am 10.2 2.8 4.1 66 2.7 NNW 32 41 17 22 1015.3 1015.4 0.0
30/11:00am 10.3 3.5 2.9 60 3.2 NNW 28 41 15 22 1015.8 1015.9 0.0
30/10:30am 10.3 3.4 2.6 59 3.3 N 28 43 15 23 1015.7 1015.8 0.0
30/10:00am 10.3 3.5 2.9 60 3.2 N 28 46 15 25 1015.8 1015.9 0.0
30/09:57am 10.3 3.3 2.0 56 3.5 N 28 46 15 25 1015.8 1015.9 0.0
30/09:30am 9.7 2.8 2.7 61 3.0 N 28 39 15 21 1016.2 1016.3 0.0
30/09:00am 9.0 2.9 2.9 65 2.6 N 24 35 13 19 1016.8 1016.9 0.2
30/08:30am 8.4 3.2 3.3 70 2.2 N 20 28 11 15 1017.2 1017.3 0.2
30/08:00am 8.0 2.3 2.8 70 2.2 N 22 30 12 16 1017.7 1017.8 0.0
30/07:30am 8.0 2.6 2.5 68 2.3 N 20 30 11 16 1017.7 1017.8 0.0
30/07:00am 8.0 2.6 2.5 68 2.3 NNE 20 28 11 15 1017.4 1017.5 0.0
30/06:30am 8.0 2.6 2.2 67 2.4 N 20 28 11 15 1017.5 1017.6 0.0
30/06:00am 8.0 2.6 2.2 67 2.4 N 20 30 11 16 1017.6 1017.7 0.0
30/05:30am 8.1 2.6 2.1 66 2.5 N 20 30 11 16 1017.8 1017.9 0.0
30/05:00am 7.7 2.9 2.7 70 2.1 N 17 26 9 14 1018.4 1018.5 0.0
30/04:30am 7.5 1.8 2.7 71 2.0 N 22 28 12 15 1018.9 1019.0 0.0
30/04:00am 7.5 2.1 2.4 70 2.1 N 20 30 11 16 1019.4 1019.5 0.0
30/03:30am 7.4 1.6 2.3 70 2.1 N 22 32 12 17 1020.1 1020.2 0.0
30/03:00am 7.2 1.8 2.4 71 2.0 N 20 28 11 15 1020.4 1020.5 0.0
30/02:30am 6.8 1.4 2.4 73 1.8 NNE 20 28 11 15 1020.6 1020.7 0.0
30/02:00am 6.5 1.3 2.6 76 1.6 N 19 24 10 13 1021.4 1021.5 0.0
30/01:30am 6.6 1.4 2.5 75 1.7 NNE 19 24 10 13 1021.6 1021.7 0.0
30/01:00am 6.6 1.8 2.7 76 1.6 NNE 17 24 9 13 1021.8 1021.9 0.0
30/12:30am 6.8 2.1 3.0 77 1.6 NNE 17 22 9 12 1022.2 1022.3 0.0
30/12:00am 7.1 2.4 3.0 75 1.7 N 17 20 9 11 1022.9 1023.0 0.0
 
Date/Time
CST
Temp
°C
App
Temp
°C
Dew
Point
Rel
Hum
%
Delta-T
°C
Wind Press
QNH
hPa
Press
MSL
hPa
Rain
since 9 am
mm
Dir
 
Spd
km/h
Gust
km/h
Spd
kts
Gust
kts
29/11:30pm 7.1 2.4 3.0 75 1.7 N 17 24 9 13 1023.4 1023.6 0.0
29/11:00pm 7.3 2.6 3.3 76 1.7 N 17 20 9 11 1023.9 1024.0 0.0
29/10:30pm 7.8 3.1 3.3 73 1.9 N 17 24 9 13 1024.2 1024.3 0.0
29/10:00pm 7.9 3.2 3.4 73 1.9 N 17 24 9 13 1024.5 1024.6 0.0
29/09:30pm 8.2 3.2 3.5 72 2.0 N 19 26 10 14 1024.5 1024.6 0.0
29/09:00pm 8.8 3.6 3.7 70 2.2 NNE 20 28 11 15 1024.5 1024.6 0.0
29/08:30pm 8.8 4.2 3.7 70 2.2 NNE 17 24 9 13 1024.8 1024.9 0.0
29/08:00pm 9.1 4.1 3.5 68 2.4 NNE 19 26 10 14 1025.0 1025.1 0.0
29/07:30pm 9.2 4.3 3.9 69 2.3 NNE 19 24 10 13 1025.3 1025.4 0.0
29/07:00pm 9.2 4.7 4.2 71 2.2 NNE 17 20 9 11 1025.3 1025.4 0.0
29/06:30pm 9.4 5.2 3.9 68 2.4 NNE 15 19 8 10 1025.4 1025.5 0.0
29/06:00pm 9.7 5.2 4.0 67 2.5 N 17 24 9 13 1025.2 1025.3 0.0
29/05:30pm 9.8 5.7 4.1 67 2.5 N 15 20 8 11 1025.3 1025.4 0.0
29/05:00pm 10.1 6.0 4.5 68 2.5 N 15 22 8 12 1025.6 1025.7 0.0
29/04:30pm 10.5 6.0 4.4 66 2.7 N 17 24 9 13 1025.9 1026.0 0.0
29/04:00pm 11.0 5.9 4.0 62 3.1 N 20 28 11 15 1026.1 1026.2 0.0
29/03:30pm 11.4 6.2 3.7 59 3.4 N 20 32 11 17 1026.3 1026.4 0.0
29/03:00pm 11.9 6.0 4.1 59 3.5 N 24 33 13 18 1026.3 1026.4 0.0
29/02:30pm 11.4 5.5 3.7 59 3.4 N 24 33 13 18 1026.5 1026.6 0.0
29/02:00pm 11.5 5.6 3.8 59 3.4 N 24 35 13 19 1026.8 1026.9 0.0
29/01:30pm 11.5 6.2 4.9 64 3.0 N 22 32 12 17 1027.5 1027.6 0.0
29/01:00pm 11.6 4.6 4.0 59 3.4 N 30 39 16 21 1027.9 1028.0 0.0
29/12:30pm 11.1 5.2 4.1 62 3.1 N 24 35 13 19 1028.4 1028.5 0.0
29/12:00pm 11.2 5.4 4.2 62 3.1 N 24 32 13 17 1029.2 1029.3 0.0
29/11:30am 11.3 6.4 5.1 65 2.8 N 20 28 11 15 1030.0 1030.1 0.0
29/11:00am 11.0 6.0 4.8 65 2.8 N 20 32 11 17 1030.6 1030.7 0.0
29/10:30am 10.5 5.7 5.4 70 2.3 N 20 30 11 16 1031.1 1031.2 0.0
29/10:00am 10.1 6.0 6.0 76 1.9 N 17 24 9 13 1031.1 1031.2 0.0
29/09:30am 9.9 5.3 5.7 75 1.9 N 19 26 10 14 1031.3 1031.4 0.0
29/09:00am 9.2 5.6 6.6 84 1.2 NNE 15 20 8 11 1031.5 1031.6 0.2
29/08:30am 8.7 5.4 6.5 86 1.0 N 13 19 7 10 1031.8 1031.9 0.2
29/08:00am 8.3 5.0 6.6 89 0.8 N 13 17 7 9 1031.6 1031.7 0.2
29/07:30am 8.0 4.8 6.7 91 0.6 NNE 13 19 7 10 1031.3 1031.4 0.2
29/07:00am 7.8 5.0 6.9 94 0.4 N 11 15 6 8 1031.8 1031.9 0.2
29/06:30am 7.8 5.4 6.9 94 0.4 N 9 13 5 7 1031.8 1031.9 0.2
29/06:00am 7.4 4.5 6.7 95 0.3 NNE 11 13 6 7 1031.5 1031.6 0.2
29/05:30am 7.3 4.8 6.6 95 0.3 NNE 9 15 5 8 1031.9 1032.0 0.2
29/05:00am 7.0 4.1 6.6 97 0.2 NNE 11 13 6 7 1031.7 1031.8 0.2
29/04:30am 6.5 3.9 6.1 97 0.2 NNE 9 13 5 7 1031.6 1031.7 0.2
29/04:00am 6.2 3.2 6.0 99 0.1 NNE 11 13 6 7 1031.7 1031.8 0.2
29/03:30am 6.1 3.4 5.4 95 0.3 NNE 9 11 5 6 1031.9 1032.0 0.0
29/03:00am 6.2 3.5 5.7 97 0.2 NNE 9 11 5 6 1031.8 1031.9 0.0
29/02:30am 6.5 3.5 6.1 97 0.2 NNE 11 11 6 6 1032.1 1032.2 0.0
29/02:00am 6.9 4.4 6.5 97 0.2 NNE 9 11 5 6 1032.3 1032.4 0.0
29/01:30am 7.3 5.2 6.6 95 0.3 NNE 7 11 4 6 1032.7 1032.8 0.0
29/01:00am 7.2 4.8 6.8 97 0.2 NNE 9 9 5 5 1032.7 1032.8 0.0
29/12:30am 6.8 4.8 6.4 97 0.2 NNE 6 7 3 4 1033.3 1033.4 0.0
29/12:00am 6.6 4.4 6.2 97 0.2 NE 7 9 4 5 1033.3 1033.4 0.0
 
Date/Time
CST
Temp
°C
App
Temp
°C
Dew
Point
Rel
Hum
%
Delta-T
°C
Wind Press
QNH
hPa
Press
MSL
hPa
Rain
since 9 am
mm
Dir
 
Spd
km/h
Gust
km/h
Spd
kts
Gust
kts
28/11:30pm 6.8 4.3 6.4 97 0.2 NE 9 11 5 6 1033.1 1033.2 0.0
28/11:00pm 6.6 4.3 5.9 95 0.3 N 7 9 4 5 1033.8 1033.9 0.0
28/10:30pm 6.5 3.8 5.8 95 0.3 NNE 9 9 5 5 1033.7 1033.8 0.0
28/10:00pm 6.9 4.8 6.5 97 0.2 NNE 7 9 4 5 1033.8 1033.9 0.0
28/09:30pm 6.5 4.3 6.1 97 0.2 N 7 7 4 4 1034.4 1034.5 0.0
28/09:00pm 6.6 4.3 5.9 95 0.3 N 7 9 4 5 1034.1 1034.2 0.0
28/08:30pm 7.4 4.9 6.5 94 0.4 N 9 11 5 6 1034.4 1034.5 0.0
28/08:00pm 7.4 4.9 6.5 94 0.4 N 9 11 5 6 1034.4 1034.5 0.0
28/07:30pm 7.3 5.1 6.0 91 0.6 N 7 9 4 5 1034.6 1034.7 0.0
28/07:00pm 7.6 5.0 6.3 91 0.6 NNW 9 11 5 6 1034.7 1034.8 0.0
28/06:30pm 8.6 6.8 7.1 90 0.7 NNW 6 7 3 4 1034.3 1034.4 0.0
28/06:00pm 9.9 8.2 8.2 89 0.8 NNW 7 9 4 5 1034.2 1034.3 0.0
28/05:30pm 10.9 9.4 8.4 84 1.2 W 6 6 3 3 1034.1 1034.2 0.0
28/05:00pm 11.6 9.5 8.3 80 1.6 WNW 9 13 5 7 1034.0 1034.1 0.0
28/04:30pm 11.9 9.7 8.0 77 1.9 W 9 13 5 7 1033.9 1034.0 0.0
28/04:00pm 12.6 10.4 7.9 73 2.3 WSW 9 13 5 7 1034.0 1034.1 0.0
28/03:30pm 12.4 9.8 7.9 74 2.2 W 11 13 6 7 1034.1 1034.2 0.0
28/03:00pm 12.1 8.2 7.3 72 2.3 W 17 22 9 12 1034.0 1034.1 0.0
28/02:30pm 12.6 9.1 7.2 69 2.6 WNW 15 20 8 11 1034.0 1034.1 0.0
28/02:00pm 12.6 9.5 7.2 69 2.6 W 13 17 7 9 1033.9 1034.0 0.0
28/01:30pm 12.7 8.8 7.1 69 2.7 W 17 22 9 12 1034.2 1034.3 0.0
28/01:00pm 13.8 10.6 6.9 63 3.4 W 13 20 7 11 1034.7 1034.8 0.0
28/12:30pm 12.7 8.9 7.5 70 2.5 NW 17 20 9 11 1035.1 1035.2 0.0
28/12:00pm 11.6 8.9 9.0 84 1.3 NW 13 20 7 11 1035.6 1035.7 0.0
28/11:30am 11.6 9.0 9.4 86 1.1 NNW 13 17 7 9 1036.0 1036.1 0.0
28/11:00am 10.0 7.3 8.8 92 0.6 NNW 13 17 7 9 1036.4 1036.5 0.0
28/10:30am 8.4 5.5 8.0 97 0.2 NNW 13 17 7 9 1037.0 1037.1 0.0
28/10:00am 8.1 5.1 7.7 97 0.2 N 13 19 7 10 1036.6 1036.7 0.0
28/09:30am 7.5 4.4 7.1 97 0.2 NNW 13 19 7 10 1036.5 1036.6 0.0
28/09:00am 6.6 3.3 6.2 97 0.2 N 13 19 7 10 1036.4 1036.5 2.4
28/08:30am 5.8 2.7 5.6 99 0.1 N 11 15 6 8 1036.2 1036.3 2.4
28/08:00am 5.4 2.2 5.2 99 0.1 N 11 15 6 8 1036.1 1036.2 2.4
28/07:30am 5.3 2.1 5.1 99 0.1 N 11 15 6 8 1036.2 1036.3 2.4
28/07:00am 5.0 1.7 4.5 97 0.2 N 11 13 6 7 1035.8 1035.9 2.4
28/06:30am 5.0 1.7 4.8 99 0.1 NNW 11 15 6 8 1035.6 1035.7 2.4
28/06:00am 4.5 1.2 4.3 99 0.1 NNW 11 13 6 7 1035.3 1035.4 2.4
28/05:30am 4.4 1.4 4.2 99 0.1 NNW 9 11 5 6 1034.8 1034.9 2.4
28/05:00am 4.3 1.3 4.1 99 0.1 N 9 11 5 6 1034.5 1034.6 2.4
28/04:30am 4.5 1.5 4.3 99 0.1 N 9 13 5 7 1034.4 1034.5 2.4
28/04:00am 4.8 1.9 4.6 99 0.1 N 9 13 5 7 1034.5 1034.6 2.4
28/03:30am 5.1 1.5 4.9 99 0.1 N 13 15 7 8 1034.4 1034.5 2.4
28/03:00am 5.1 2.8 4.9 99 0.1 N 6 11 3 6 1034.7 1034.8 2.4
28/02:30am 4.9 1.6 4.4 97 0.2 N 11 15 6 8 1034.7 1034.8 2.2
28/02:00am 4.9 2.0 4.7 99 0.1 N 9 11 5 6 1034.7 1034.8 2.2
28/01:30am 5.1 2.2 4.9 99 0.1 NW 9 11 5 6 1034.7 1034.8 2.2
28/01:00am 5.3 2.1 5.1 99 0.1 N 11 13 6 7 1034.4 1034.5 2.0
28/12:30am 5.0 2.5 4.8 99 0.1 N 7 9 4 5 1034.1 1034.2 2.0
28/12:00am 4.8 1.9 4.6 99 0.1 N 9 11 5 6 1034.2 1034.3 2.0

Other Formats:

Comma delimited format used in spreadsheet applications
http://www.bom.gov.au/fwo/IDS60801/IDS60801.94817.axf

JavaScript Object Notation format (JSON) in row-major order
http://www.bom.gov.au/fwo/IDS60801/IDS60801.94817.json